Terminal Aerodrome Forecast
Issued by NWS Boise, ID

Home | Current Version | Previous Version | Text Only | Print | Product List | Glossary On
Versions: 1 2 3 4 5 6 7 8 9 10 11 12 13 14 15 16 17 18
000
FTUS45 KBOI 080526
TAFBOI
TAF
KBOI 080526Z 0806/0906 14014KT P6SM OVC150
     FM081500 14016G26KT P6SM VCSH BKN060 OVC100
     FM082000 14018G28KT 2SM -SN OVC015
     FM090200 14012KT P6SM VCSH SCT015 OVC025=

USA.gov is the U.S. government's official web portal to all federal, state and local government web resources and services.